sensor_id;sensor_type;location;lat;lon;timestamp;P1;durP1;ratioP1;P2;durP2;ratioP2
10005;SDS011;5042;42.626;23.382;2023-05-21T00:00:58;7.17;;;4.67;;
10005;SDS011;5042;42.626;23.382;2023-05-21T00:03:25;5.37;;;4.50;;
10005;SDS011;5042;42.626;23.382;2023-05-21T00:05:54;6.80;;;4.13;;
10005;SDS011;5042;42.626;23.382;2023-05-21T00:08:21;5.83;;;4.30;;
10005;SDS011;5042;42.626;23.382;2023-05-21T00:10:49;4.80;;;4.30;;
10005;SDS011;5042;42.626;23.382;2023-05-21T00:13:15;5.30;;;4.40;;
10005;SDS011;5042;42.626;23.382;2023-05-21T00:15:42;5.20;;;4.53;;
10005;SDS011;5042;42.626;23.382;2023-05-21T00:18:09;4.60;;;4.03;;
10005;SDS011;5042;42.626;23.382;2023-05-21T00:20:36;8.20;;;4.53;;
10005;SDS011;5042;42.626;23.382;2023-05-21T00:23:05;4.83;;;3.73;;
10005;SDS011;5042;42.626;23.382;2023-05-21T00:25:32;4.83;;;4.27;;
10005;SDS011;5042;42.626;23.382;2023-05-21T00:28:00;5.33;;;4.33;;
10005;SDS011;5042;42.626;23.382;2023-05-21T00:30:27;5.40;;;4.17;;
10005;SDS011;5042;42.626;23.382;2023-05-21T00:32:54;5.47;;;4.43;;
10005;SDS011;5042;42.626;23.382;2023-05-21T00:35:22;6.13;;;4.80;;
10005;SDS011;5042;42.626;23.382;2023-05-21T00:37:49;5.73;;;4.80;;
10005;SDS011;5042;42.626;23.382;2023-05-21T00:40:16;6.43;;;4.90;;
10005;SDS011;5042;42.626;23.382;2023-05-21T00:42:44;4.60;;;4.13;;
10005;SDS011;5042;42.626;23.382;2023-05-21T00:45:13;4.73;;;4.20;;
10005;SDS011;5042;42.626;23.382;2023-05-21T00:47:40;5.07;;;4.37;;
10005;SDS011;5042;42.626;23.382;2023-05-21T00:50:09;6.40;;;4.70;;
10005;SDS011;5042;42.626;23.382;2023-05-21T00:52:38;7.60;;;4.30;;
10005;SDS011;5042;42.626;23.382;2023-05-21T00:55:07;7.83;;;4.80;;
10005;SDS011;5042;42.626;23.382;2023-05-21T00:57:35;5.73;;;4.50;;
10005;SDS011;5042;42.626;23.382;2023-05-21T01:00:03;4.83;;;4.13;;
10005;SDS011;5042;42.626;23.382;2023-05-21T01:02:34;6.23;;;4.50;;
10005;SDS011;5042;42.626;23.382;2023-05-21T01:05:02;5.90;;;4.80;;
10005;SDS011;5042;42.626;23.382;2023-05-21T01:07:30;5.30;;;4.30;;
10005;SDS011;5042;42.626;23.382;2023-05-21T01:09:59;8.20;;;4.40;;
10005;SDS011;5042;42.626;23.382;2023-05-21T01:12:26;4.97;;;3.90;;
10005;SDS011;5042;42.626;23.382;2023-05-21T01:14:55;6.33;;;4.57;;
10005;SDS011;5042;42.626;23.382;2023-05-21T01:17:23;6.83;;;4.47;;
10005;SDS011;5042;42.626;23.382;2023-05-21T01:19:52;4.80;;;4.30;;
10005;SDS011;5042;42.626;23.382;2023-05-21T01:22:20;7.30;;;4.93;;
10005;SDS011;5042;42.626;23.382;2023-05-21T01:24:50;6.07;;;4.20;;
10005;SDS011;5042;42.626;23.382;2023-05-21T01:27:19;6.67;;;4.60;;
10005;SDS011;5042;42.626;23.382;2023-05-21T01:29:46;6.87;;;4.80;;
10005;SDS011;5042;42.626;23.382;2023-05-21T01:32:15;5.53;;;4.20;;
10005;SDS011;5042;42.626;23.382;2023-05-21T01:34:49;5.77;;;4.67;;
10005;SDS011;5042;42.626;23.382;2023-05-21T01:37:22;6.23;;;4.33;;
10005;SDS011;5042;42.626;23.382;2023-05-21T01:39:57;7.33;;;4.43;;
10005;SDS011;5042;42.626;23.382;2023-05-21T01:42:28;4.53;;;4.13;;
10005;SDS011;5042;42.626;23.382;2023-05-21T01:44:55;6.90;;;4.77;;
10005;SDS011;5042;42.626;23.382;2023-05-21T01:47:24;4.93;;;4.17;;
10005;SDS011;5042;42.626;23.382;2023-05-21T01:49:52;7.33;;;4.47;;
10005;SDS011;5042;42.626;23.382;2023-05-21T01:52:19;5.10;;;4.47;;
10005;SDS011;5042;42.626;23.382;2023-05-21T01:54:46;6.97;;;4.50;;
10005;SDS011;5042;42.626;23.382;2023-05-21T01:57:15;5.10;;;4.47;;
10005;SDS011;5042;42.626;23.382;2023-05-21T01:59:42;5.50;;;4.60;;
10005;SDS011;5042;42.626;23.382;2023-05-21T02:02:09;10.13;;;4.67;;
10005;SDS011;5042;42.626;23.382;2023-05-21T02:04:36;5.77;;;4.87;;
10005;SDS011;5042;42.626;23.382;2023-05-21T02:07:05;8.53;;;4.87;;
10005;SDS011;5042;42.626;23.382;2023-05-21T02:09:32;5.73;;;4.60;;
10005;SDS011;5042;42.626;23.382;2023-05-21T02:11:58;5.80;;;4.70;;
10005;SDS011;5042;42.626;23.382;2023-05-21T02:14:27;6.87;;;4.97;;
10005;SDS011;5042;42.626;23.382;2023-05-21T02:16:54;8.60;;;4.70;;
10005;SDS011;5042;42.626;23.382;2023-05-21T02:19:22;5.70;;;4.80;;
10005;SDS011;5042;42.626;23.382;2023-05-21T02:21:48;8.87;;;4.87;;
10005;SDS011;5042;42.626;23.382;2023-05-21T02:24:15;7.80;;;6.63;;
10005;SDS011;5042;42.626;23.382;2023-05-21T02:26:42;10.67;;;6.47;;
10005;SDS011;5042;42.626;23.382;2023-05-21T02:29:09;8.17;;;6.57;;
10005;SDS011;5042;42.626;23.382;2023-05-21T02:31:37;11.20;;;7.10;;
10005;SDS011;5042;42.626;23.382;2023-05-21T02:34:04;11.73;;;7.47;;
10005;SDS011;5042;42.626;23.382;2023-05-21T02:36:32;12.47;;;7.90;;
10005;SDS011;5042;42.626;23.382;2023-05-21T02:39:00;10.43;;;7.73;;
10005;SDS011;5042;42.626;23.382;2023-05-21T02:41:26;11.33;;;7.70;;
10005;SDS011;5042;42.626;23.382;2023-05-21T02:43:53;11.80;;;6.73;;
10005;SDS011;5042;42.626;23.382;2023-05-21T02:46:20;11.27;;;7.87;;
10005;SDS011;5042;42.626;23.382;2023-05-21T02:48:48;10.17;;;7.17;;
10005;SDS011;5042;42.626;23.382;2023-05-21T02:51:15;10.37;;;7.00;;
10005;SDS011;5042;42.626;23.382;2023-05-21T02:53:41;9.50;;;6.83;;
10005;SDS011;5042;42.626;23.382;2023-05-21T02:56:08;9.63;;;7.40;;
10005;SDS011;5042;42.626;23.382;2023-05-21T02:58:36;9.87;;;7.20;;
10005;SDS011;5042;42.626;23.382;2023-05-21T03:01:03;10.53;;;8.20;;
10005;SDS011;5042;42.626;23.382;2023-05-21T03:03:30;10.53;;;7.90;;
10005;SDS011;5042;42.626;23.382;2023-05-21T03:05:58;11.40;;;7.40;;
10005;SDS011;5042;42.626;23.382;2023-05-21T03:08:25;11.37;;;7.80;;
10005;SDS011;5042;42.626;23.382;2023-05-21T03:10:52;13.13;;;8.43;;
10005;SDS011;5042;42.626;23.382;2023-05-21T03:13:19;13.40;;;8.50;;
10005;SDS011;5042;42.626;23.382;2023-05-21T03:15:47;9.33;;;8.33;;
10005;SDS011;5042;42.626;23.382;2023-05-21T03:18:14;10.50;;;8.57;;
10005;SDS011;5042;42.626;23.382;2023-05-21T03:20:40;11.23;;;7.60;;
10005;SDS011;5042;42.626;23.382;2023-05-21T03:23:10;8.97;;;6.73;;
10005;SDS011;5042;42.626;23.382;2023-05-21T03:25:38;11.47;;;7.03;;
10005;SDS011;5042;42.626;23.382;2023-05-21T03:28:04;10.53;;;6.87;;
10005;SDS011;5042;42.626;23.382;2023-05-21T03:30:34;6.67;;;5.57;;
10005;SDS011;5042;42.626;23.382;2023-05-21T03:33:00;6.37;;;5.00;;
10005;SDS011;5042;42.626;23.382;2023-05-21T03:35:27;5.83;;;5.13;;
10005;SDS011;5042;42.626;23.382;2023-05-21T03:37:54;6.47;;;4.70;;
10005;SDS011;5042;42.626;23.382;2023-05-21T03:40:22;11.10;;;5.03;;
10005;SDS011;5042;42.626;23.382;2023-05-21T03:42:49;6.50;;;4.63;;
10005;SDS011;5042;42.626;23.382;2023-05-21T03:45:16;6.70;;;4.80;;
10005;SDS011;5042;42.626;23.382;2023-05-21T03:47:42;7.50;;;4.63;;
10005;SDS011;5042;42.626;23.382;2023-05-21T03:50:09;5.27;;;4.77;;
10005;SDS011;5042;42.626;23.382;2023-05-21T03:52:36;5.47;;;4.17;;
10005;SDS011;5042;42.626;23.382;2023-05-21T03:55:03;6.77;;;4.20;;
10005;SDS011;5042;42.626;23.382;2023-05-21T03:57:32;8.00;;;4.33;;
10005;SDS011;5042;42.626;23.382;2023-05-21T03:59:58;6.90;;;4.50;;
10005;SDS011;5042;42.626;23.382;2023-05-21T04:02:26;5.47;;;4.33;;
10005;SDS011;5042;42.626;23.382;2023-05-21T04:04:52;5.13;;;4.13;;
10005;SDS011;5042;42.626;23.382;2023-05-21T04:07:19;4.63;;;3.90;;
10005;SDS011;5042;42.626;23.382;2023-05-21T04:09:46;5.30;;;4.20;;
10005;SDS011;5042;42.626;23.382;2023-05-21T04:12:13;6.70;;;4.57;;
10005;SDS011;5042;42.626;23.382;2023-05-21T04:14:43;6.13;;;4.17;;
10005;SDS011;5042;42.626;23.382;2023-05-21T04:17:10;5.73;;;4.50;;
10005;SDS011;5042;42.626;23.382;2023-05-21T04:19:37;9.10;;;4.87;;
10005;SDS011;5042;42.626;23.382;2023-05-21T04:22:04;7.37;;;4.63;;
10005;SDS011;5042;42.626;23.382;2023-05-21T04:24:31;5.97;;;4.23;;
10005;SDS011;5042;42.626;23.382;2023-05-21T04:26:58;6.68;;;4.63;;
10005;SDS011;5042;42.626;23.382;2023-05-21T04:29:25;6.83;;;4.17;;
10005;SDS011;5042;42.626;23.382;2023-05-21T04:31:55;5.80;;;4.40;;
10005;SDS011;5042;42.626;23.382;2023-05-21T04:34:22;7.73;;;4.27;;
10005;SDS011;5042;42.626;23.382;2023-05-21T04:36:48;6.35;;;4.00;;
10005;SDS011;5042;42.626;23.382;2023-05-21T04:39:16;8.13;;;4.27;;
10005;SDS011;5042;42.626;23.382;2023-05-21T04:41:42;6.57;;;3.97;;
10005;SDS011;5042;42.626;23.382;2023-05-21T04:44:09;6.67;;;3.80;;
10005;SDS011;5042;42.626;23.382;2023-05-21T04:46:38;5.68;;;3.90;;
10005;SDS011;5042;42.626;23.382;2023-05-21T04:49:06;3.65;;;3.35;;
10005;SDS011;5042;42.626;23.382;2023-05-21T04:51:34;4.40;;;3.33;;
10005;SDS011;5042;42.626;23.382;2023-05-21T04:54:01;4.97;;;3.72;;
10005;SDS011;5042;42.626;23.382;2023-05-21T04:56:29;6.45;;;4.03;;
10005;SDS011;5042;42.626;23.382;2023-05-21T04:58:55;6.40;;;3.75;;
10005;SDS011;5042;42.626;23.382;2023-05-21T05:01:23;3.75;;;3.20;;
10005;SDS011;5042;42.626;23.382;2023-05-21T05:03:51;6.38;;;3.88;;
10005;SDS011;5042;42.626;23.382;2023-05-21T05:06:19;4.75;;;3.30;;
10005;SDS011;5042;42.626;23.382;2023-05-21T05:08:46;5.03;;;3.42;;
10005;SDS011;5042;42.626;23.382;2023-05-21T05:11:13;4.18;;;3.70;;
10005;SDS011;5042;42.626;23.382;2023-05-21T05:13:40;5.97;;;3.80;;
10005;SDS011;5042;42.626;23.382;2023-05-21T05:16:06;7.55;;;3.67;;
10005;SDS011;5042;42.626;23.382;2023-05-21T05:18:33;5.82;;;3.53;;
10005;SDS011;5042;42.626;23.382;2023-05-21T05:21:01;4.90;;;3.47;;
10005;SDS011;5042;42.626;23.382;2023-05-21T05:23:29;7.35;;;4.13;;
10005;SDS011;5042;42.626;23.382;2023-05-21T05:25:56;6.32;;;3.50;;
10005;SDS011;5042;42.626;23.382;2023-05-21T05:28:22;4.78;;;3.08;;
10005;SDS011;5042;42.626;23.382;2023-05-21T05:30:49;3.72;;;3.10;;
10005;SDS011;5042;42.626;23.382;2023-05-21T05:33:16;5.13;;;3.20;;
10005;SDS011;5042;42.626;23.382;2023-05-21T05:35:44;3.10;;;2.80;;
10005;SDS011;5042;42.626;23.382;2023-05-21T05:38:11;5.07;;;3.05;;
10005;SDS011;5042;42.626;23.382;2023-05-21T05:40:39;3.75;;;2.70;;
10005;SDS011;5042;42.626;23.382;2023-05-21T05:43:06;4.15;;;2.95;;
10005;SDS011;5042;42.626;23.382;2023-05-21T05:45:33;3.92;;;3.17;;
10005;SDS011;5042;42.626;23.382;2023-05-21T05:48:00;5.10;;;3.45;;
10005;SDS011;5042;42.626;23.382;2023-05-21T05:50:26;6.10;;;2.95;;
10005;SDS011;5042;42.626;23.382;2023-05-21T05:52:53;4.72;;;3.47;;
10005;SDS011;5042;42.626;23.382;2023-05-21T05:55:20;5.63;;;3.25;;
10005;SDS011;5042;42.626;23.382;2023-05-21T05:57:50;5.10;;;3.00;;
10005;SDS011;5042;42.626;23.382;2023-05-21T06:00:21;3.20;;;2.90;;
10005;SDS011;5042;42.626;23.382;2023-05-21T06:02:50;5.45;;;3.50;;
10005;SDS011;5042;42.626;23.382;2023-05-21T06:05:17;4.13;;;3.25;;
10005;SDS011;5042;42.626;23.382;2023-05-21T06:07:43;3.60;;;2.97;;
10005;SDS011;5042;42.626;23.382;2023-05-21T06:10:10;3.53;;;3.22;;
10005;SDS011;5042;42.626;23.382;2023-05-21T06:12:37;4.15;;;3.25;;
10005;SDS011;5042;42.626;23.382;2023-05-21T06:15:06;5.07;;;2.97;;
10005;SDS011;5042;42.626;23.382;2023-05-21T06:17:34;5.80;;;3.13;;
10005;SDS011;5042;42.626;23.382;2023-05-21T06:20:00;7.38;;;2.92;;
10005;SDS011;5042;42.626;23.382;2023-05-21T06:22:28;6.95;;;3.35;;
10005;SDS011;5042;42.626;23.382;2023-05-21T06:24:54;3.83;;;2.90;;
10005;SDS011;5042;42.626;23.382;2023-05-21T06:27:21;4.82;;;3.25;;
10005;SDS011;5042;42.626;23.382;2023-05-21T06:29:48;3.50;;;3.20;;
10005;SDS011;5042;42.626;23.382;2023-05-21T06:32:16;4.45;;;3.15;;
10005;SDS011;5042;42.626;23.382;2023-05-21T06:34:45;3.67;;;2.88;;
10005;SDS011;5042;42.626;23.382;2023-05-21T06:37:12;5.55;;;3.28;;
10005;SDS011;5042;42.626;23.382;2023-05-21T06:39:39;4.25;;;3.22;;
10005;SDS011;5042;42.626;23.382;2023-05-21T06:42:06;5.78;;;3.35;;
10005;SDS011;5042;42.626;23.382;2023-05-21T06:44:32;4.97;;;3.20;;
10005;SDS011;5042;42.626;23.382;2023-05-21T06:47:00;4.53;;;3.50;;
10005;SDS011;5042;42.626;23.382;2023-05-21T06:49:28;8.40;;;3.80;;
10005;SDS011;5042;42.626;23.382;2023-05-21T06:51:57;6.97;;;3.65;;
10005;SDS011;5042;42.626;23.382;2023-05-21T06:54:23;4.78;;;3.35;;
10005;SDS011;5042;42.626;23.382;2023-05-21T06:56:50;4.63;;;3.42;;
10005;SDS011;5042;42.626;23.382;2023-05-21T06:59:17;4.65;;;3.35;;
10005;SDS011;5042;42.626;23.382;2023-05-21T07:01:44;4.90;;;3.33;;
10005;SDS011;5042;42.626;23.382;2023-05-21T07:04:10;4.95;;;3.25;;
10005;SDS011;5042;42.626;23.382;2023-05-21T07:06:38;4.75;;;3.35;;
10005;SDS011;5042;42.626;23.382;2023-05-21T07:09:05;3.50;;;3.20;;
10005;SDS011;5042;42.626;23.382;2023-05-21T07:11:33;4.57;;;3.72;;
10005;SDS011;5042;42.626;23.382;2023-05-21T07:14:00;5.20;;;2.97;;
10005;SDS011;5042;42.626;23.382;2023-05-21T07:16:27;3.22;;;2.65;;
10005;SDS011;5042;42.626;23.382;2023-05-21T07:18:54;3.22;;;2.92;;
10005;SDS011;5042;42.626;23.382;2023-05-21T07:21:21;5.85;;;2.92;;
10005;SDS011;5042;42.626;23.382;2023-05-21T07:23:49;3.65;;;3.05;;
10005;SDS011;5042;42.626;23.382;2023-05-21T07:26:16;3.40;;;3.00;;
10005;SDS011;5042;42.626;23.382;2023-05-21T07:28:43;7.80;;;3.33;;
10005;SDS011;5042;42.626;23.382;2023-05-21T07:31:10;4.47;;;2.80;;
10005;SDS011;5042;42.626;23.382;2023-05-21T07:33:37;3.83;;;2.97;;
10005;SDS011;5042;42.626;23.382;2023-05-21T07:36:04;3.90;;;2.85;;
10005;SDS011;5042;42.626;23.382;2023-05-21T07:38:31;2.85;;;2.60;;
10005;SDS011;5042;42.626;23.382;2023-05-21T07:41:00;3.33;;;2.80;;
10005;SDS011;5042;42.626;23.382;2023-05-21T07:43:26;5.07;;;3.60;;
10005;SDS011;5042;42.626;23.382;2023-05-21T07:45:53;3.25;;;2.90;;
10005;SDS011;5042;42.626;23.382;2023-05-21T07:48:20;3.47;;;3.10;;
10005;SDS011;5042;42.626;23.382;2023-05-21T07:50:47;4.85;;;3.30;;
10005;SDS011;5042;42.626;23.382;2023-05-21T07:53:14;3.65;;;3.25;;
10005;SDS011;5042;42.626;23.382;2023-05-21T07:55:41;3.78;;;2.88;;
10005;SDS011;5042;42.626;23.382;2023-05-21T07:58:13;5.50;;;2.88;;
10005;SDS011;5042;42.626;23.382;2023-05-21T08:00:42;3.63;;;2.80;;
10005;SDS011;5042;42.626;23.382;2023-05-21T08:03:12;4.38;;;2.85;;
10005;SDS011;5042;42.626;23.382;2023-05-21T08:05:40;5.03;;;2.90;;
10005;SDS011;5042;42.626;23.382;2023-05-21T08:08:07;4.57;;;2.92;;
10005;SDS011;5042;42.626;23.382;2023-05-21T08:10:33;3.35;;;2.30;;
10005;SDS011;5042;42.626;23.382;2023-05-21T08:13:01;6.85;;;3.10;;
10005;SDS011;5042;42.626;23.382;2023-05-21T08:15:29;4.65;;;3.00;;
10005;SDS011;5042;42.626;23.382;2023-05-21T08:17:56;4.00;;;2.50;;
10005;SDS011;5042;42.626;23.382;2023-05-21T08:20:23;4.30;;;2.25;;
10005;SDS011;5042;42.626;23.382;2023-05-21T08:22:50;5.03;;;2.67;;
10005;SDS011;5042;42.626;23.382;2023-05-21T08:25:17;3.90;;;2.60;;
10005;SDS011;5042;42.626;23.382;2023-05-21T08:27:44;4.95;;;3.08;;
10005;SDS011;5042;42.626;23.382;2023-05-21T08:30:11;2.50;;;2.30;;
10005;SDS011;5042;42.626;23.382;2023-05-21T08:32:40;4.45;;;2.90;;
10005;SDS011;5042;42.626;23.382;2023-05-21T08:35:07;5.40;;;3.00;;
10005;SDS011;5042;42.626;23.382;2023-05-21T08:37:34;3.40;;;2.42;;
10005;SDS011;5042;42.626;23.382;2023-05-21T08:40:01;3.63;;;2.90;;
10005;SDS011;5042;42.626;23.382;2023-05-21T08:42:32;3.65;;;2.45;;
10005;SDS011;5042;42.626;23.382;2023-05-21T08:45:05;2.88;;;2.38;;
10005;SDS011;5042;42.626;23.382;2023-05-21T08:47:34;5.30;;;2.83;;
10005;SDS011;5042;42.626;23.382;2023-05-21T08:50:04;3.20;;;2.50;;
10005;SDS011;5042;42.626;23.382;2023-05-21T08:52:34;4.28;;;2.92;;
10005;SDS011;5042;42.626;23.382;2023-05-21T08:55:02;7.72;;;4.43;;
10005;SDS011;5042;42.626;23.382;2023-05-21T08:57:30;3.92;;;2.72;;
10005;SDS011;5042;42.626;23.382;2023-05-21T08:59:57;3.92;;;2.92;;
10005;SDS011;5042;42.626;23.382;2023-05-21T09:02:24;6.82;;;2.58;;
10005;SDS011;5042;42.626;23.382;2023-05-21T09:04:52;5.40;;;2.70;;
10005;SDS011;5042;42.626;23.382;2023-05-21T09:07:23;3.25;;;2.50;;
10005;SDS011;5042;42.626;23.382;2023-05-21T09:09:53;3.38;;;2.60;;
10005;SDS011;5042;42.626;23.382;2023-05-21T09:12:21;3.67;;;2.75;;
10005;SDS011;5042;42.626;23.382;2023-05-21T09:14:50;3.40;;;2.60;;
10005;SDS011;5042;42.626;23.382;2023-05-21T09:17:18;4.28;;;3.00;;
10005;SDS011;5042;42.626;23.382;2023-05-21T09:20:03;3.30;;;2.40;;
10005;SDS011;5042;42.626;23.382;2023-05-21T09:22:35;2.55;;;2.03;;
10005;SDS011;5042;42.626;23.382;2023-05-21T09:25:05;7.32;;;4.68;;
10005;SDS011;5042;42.626;23.382;2023-05-21T09:27:33;2.30;;;2.10;;
10005;SDS011;5042;42.626;23.382;2023-05-21T09:30:00;2.45;;;2.03;;
10005;SDS011;5042;42.626;23.382;2023-05-21T09:32:27;3.60;;;2.03;;
10005;SDS011;5042;42.626;23.382;2023-05-21T09:34:54;2.08;;;1.90;;
10005;SDS011;5042;42.626;23.382;2023-05-21T09:37:21;2.63;;;1.83;;
10005;SDS011;5042;42.626;23.382;2023-05-21T09:39:49;5.05;;;2.63;;
10005;SDS011;5042;42.626;23.382;2023-05-21T09:42:17;3.92;;;1.90;;
10005;SDS011;5042;42.626;23.382;2023-05-21T09:44:46;6.82;;;2.05;;
10005;SDS011;5042;42.626;23.382;2023-05-21T09:47:18;3.08;;;2.15;;
10005;SDS011;5042;42.626;23.382;2023-05-21T09:49:45;2.40;;;1.98;;
10005;SDS011;5042;42.626;23.382;2023-05-21T09:52:12;2.63;;;2.00;;
10005;SDS011;5042;42.626;23.382;2023-05-21T09:54:39;2.72;;;2.13;;
10005;SDS011;5042;42.626;23.382;2023-05-21T09:57:07;2.47;;;2.00;;
10005;SDS011;5042;42.626;23.382;2023-05-21T09:59:36;4.72;;;2.47;;
10005;SDS011;5042;42.626;23.382;2023-05-21T10:02:12;2.63;;;2.03;;
10005;SDS011;5042;42.626;23.382;2023-05-21T10:04:41;3.85;;;2.17;;
10005;SDS011;5042;42.626;23.382;2023-05-21T10:07:11;3.00;;;2.20;;
10005;SDS011;5042;42.626;23.382;2023-05-21T10:09:39;2.33;;;2.13;;
10005;SDS011;5042;42.626;23.382;2023-05-21T10:12:09;2.92;;;2.63;;
10005;SDS011;5042;42.626;23.382;2023-05-21T10:14:36;4.40;;;2.40;;
10005;SDS011;5042;42.626;23.382;2023-05-21T10:17:03;2.72;;;2.33;;
10005;SDS011;5042;42.626;23.382;2023-05-21T10:19:31;3.72;;;2.30;;
10005;SDS011;5042;42.626;23.382;2023-05-21T10:22:00;2.38;;;2.10;;
10005;SDS011;5042;42.626;23.382;2023-05-21T10:24:28;2.42;;;2.22;;
10005;SDS011;5042;42.626;23.382;2023-05-21T10:26:56;2.67;;;2.42;;
10005;SDS011;5042;42.626;23.382;2023-05-21T10:29:24;3.33;;;2.40;;
10005;SDS011;5042;42.626;23.382;2023-05-21T10:31:51;3.10;;;2.25;;
10005;SDS011;5042;42.626;23.382;2023-05-21T10:34:18;5.03;;;2.50;;
10005;SDS011;5042;42.626;23.382;2023-05-21T10:36:47;2.97;;;2.42;;
10005;SDS011;5042;42.626;23.382;2023-05-21T10:39:14;2.22;;;1.98;;
10005;SDS011;5042;42.626;23.382;2023-05-21T10:41:45;3.28;;;2.47;;
10005;SDS011;5042;42.626;23.382;2023-05-21T10:44:21;6.20;;;2.40;;
10005;SDS011;5042;42.626;23.382;2023-05-21T10:47:04;2.80;;;2.47;;
10005;SDS011;5042;42.626;23.382;2023-05-21T10:53:00;2.85;;;2.40;;
10005;SDS011;5042;42.626;23.382;2023-05-21T10:55:35;3.20;;;2.75;;
10005;SDS011;5042;42.626;23.382;2023-05-21T10:58:17;4.40;;;3.25;;
10005;SDS011;5042;42.626;23.382;2023-05-21T11:01:03;6.93;;;2.83;;
10005;SDS011;5042;42.626;23.382;2023-05-21T11:03:31;3.60;;;2.70;;
10005;SDS011;5042;42.626;23.382;2023-05-21T11:06:01;4.13;;;2.47;;
10005;SDS011;5042;42.626;23.382;2023-05-21T11:08:29;4.15;;;2.72;;
10005;SDS011;5042;42.626;23.382;2023-05-21T11:11:00;4.90;;;2.58;;
10005;SDS011;5042;42.626;23.382;2023-05-21T11:13:28;3.85;;;2.70;;
10005;SDS011;5042;42.626;23.382;2023-05-21T11:16:14;7.43;;;2.58;;
10005;SDS011;5042;42.626;23.382;2023-05-21T11:18:57;5.25;;;2.30;;
10005;SDS011;5042;42.626;23.382;2023-05-21T11:21:27;2.78;;;2.38;;
10005;SDS011;5042;42.626;23.382;2023-05-21T11:23:55;3.17;;;2.67;;
10005;SDS011;5042;42.626;23.382;2023-05-21T11:26:26;3.78;;;2.30;;
10005;SDS011;5042;42.626;23.382;2023-05-21T11:29:05;2.95;;;2.65;;
10005;SDS011;5042;42.626;23.382;2023-05-21T11:31:34;4.78;;;2.55;;
10005;SDS011;5042;42.626;23.382;2023-05-21T11:34:07;2.55;;;2.08;;
10005;SDS011;5042;42.626;23.382;2023-05-21T11:36:37;3.00;;;2.40;;
10005;SDS011;5042;42.626;23.382;2023-05-21T11:39:07;3.40;;;2.40;;
10005;SDS011;5042;42.626;23.382;2023-05-21T11:47:16;3.83;;;2.53;;
10005;SDS011;5042;42.626;23.382;2023-05-21T11:49:44;4.63;;;3.00;;
10005;SDS011;5042;42.626;23.382;2023-05-21T11:52:11;4.40;;;2.75;;
10005;SDS011;5042;42.626;23.382;2023-05-21T11:54:39;3.53;;;2.28;;
10005;SDS011;5042;42.626;23.382;2023-05-21T11:57:10;4.47;;;2.78;;
10005;SDS011;5042;42.626;23.382;2023-05-21T11:59:40;6.68;;;2.42;;
10005;SDS011;5042;42.626;23.382;2023-05-21T12:02:06;2.70;;;2.45;;
10005;SDS011;5042;42.626;23.382;2023-05-21T12:04:35;5.32;;;2.70;;
10005;SDS011;5042;42.626;23.382;2023-05-21T12:07:02;3.83;;;2.83;;
10005;SDS011;5042;42.626;23.382;2023-05-21T12:09:37;4.75;;;2.83;;
10005;SDS011;5042;42.626;23.382;2023-05-21T12:12:04;4.95;;;3.15;;
10005;SDS011;5042;42.626;23.382;2023-05-21T12:14:33;2.97;;;2.65;;
10005;SDS011;5042;42.626;23.382;2023-05-21T12:16:59;5.78;;;3.00;;
10005;SDS011;5042;42.626;23.382;2023-05-21T12:19:27;3.53;;;3.10;;
10005;SDS011;5042;42.626;23.382;2023-05-21T12:21:55;5.20;;;3.58;;
10005;SDS011;5042;42.626;23.382;2023-05-21T12:24:22;4.55;;;3.13;;
10005;SDS011;5042;42.626;23.382;2023-05-21T12:26:49;3.30;;;2.92;;
10005;SDS011;5042;42.626;23.382;2023-05-21T12:29:16;5.40;;;3.05;;
10005;SDS011;5042;42.626;23.382;2023-05-21T12:31:46;3.90;;;2.83;;
10005;SDS011;5042;42.626;23.382;2023-05-21T12:34:14;4.32;;;3.38;;
10005;SDS011;5042;42.626;23.382;2023-05-21T12:36:43;5.05;;;2.78;;
10005;SDS011;5042;42.626;23.382;2023-05-21T12:39:13;4.93;;;2.78;;
10005;SDS011;5042;42.626;23.382;2023-05-21T12:41:40;5.00;;;3.05;;
10005;SDS011;5042;42.626;23.382;2023-05-21T12:44:08;4.10;;;3.05;;
10005;SDS011;5042;42.626;23.382;2023-05-21T12:46:36;3.72;;;2.83;;
10005;SDS011;5042;42.626;23.382;2023-05-21T12:49:03;3.97;;;3.45;;
10005;SDS011;5042;42.626;23.382;2023-05-21T12:51:36;3.08;;;2.78;;
10005;SDS011;5042;42.626;23.382;2023-05-21T12:54:10;2.58;;;2.38;;
10005;SDS011;5042;42.626;23.382;2023-05-21T12:56:44;4.80;;;3.20;;
10005;SDS011;5042;42.626;23.382;2023-05-21T12:59:11;3.40;;;3.10;;
10005;SDS011;5042;42.626;23.382;2023-05-21T13:01:39;7.95;;;2.90;;
10005;SDS011;5042;42.626;23.382;2023-05-21T13:04:06;3.15;;;2.75;;
10005;SDS011;5042;42.626;23.382;2023-05-21T13:06:40;4.18;;;3.17;;
10005;SDS011;5042;42.626;23.382;2023-05-21T13:09:07;5.63;;;3.03;;
10005;SDS011;5042;42.626;23.382;2023-05-21T13:11:35;4.97;;;2.72;;
10005;SDS011;5042;42.626;23.382;2023-05-21T13:14:03;4.40;;;2.80;;
10005;SDS011;5042;42.626;23.382;2023-05-21T13:16:29;5.00;;;2.90;;
10005;SDS011;5042;42.626;23.382;2023-05-21T13:18:56;6.25;;;2.70;;
10005;SDS011;5042;42.626;23.382;2023-05-21T13:21:23;2.50;;;2.25;;
10005;SDS011;5042;42.626;23.382;2023-05-21T13:23:50;4.03;;;2.50;;
10005;SDS011;5042;42.626;23.382;2023-05-21T13:26:16;6.35;;;2.83;;
10005;SDS011;5042;42.626;23.382;2023-05-21T13:28:43;4.22;;;2.80;;
10005;SDS011;5042;42.626;23.382;2023-05-21T13:31:12;3.15;;;2.40;;
10005;SDS011;5042;42.626;23.382;2023-05-21T13:33:40;6.20;;;2.90;;
10005;SDS011;5042;42.626;23.382;2023-05-21T13:36:07;5.55;;;2.53;;
10005;SDS011;5042;42.626;23.382;2023-05-21T13:38:34;3.38;;;2.38;;
10005;SDS011;5042;42.626;23.382;2023-05-21T13:41:00;3.28;;;2.75;;
10005;SDS011;5042;42.626;23.382;2023-05-21T13:43:27;3.47;;;2.80;;
10005;SDS011;5042;42.626;23.382;2023-05-21T13:45:54;3.53;;;2.33;;
10005;SDS011;5042;42.626;23.382;2023-05-21T13:48:22;3.20;;;2.90;;
10005;SDS011;5042;42.626;23.382;2023-05-21T13:50:49;3.33;;;2.55;;
10005;SDS011;5042;42.626;23.382;2023-05-21T13:53:15;2.78;;;2.50;;
10005;SDS011;5042;42.626;23.382;2023-05-21T13:55:42;3.10;;;2.63;;
10005;SDS011;5042;42.626;23.382;2023-05-21T13:58:09;3.90;;;2.50;;
10005;SDS011;5042;42.626;23.382;2023-05-21T14:00:36;2.60;;;2.30;;
10005;SDS011;5042;42.626;23.382;2023-05-21T14:03:04;4.10;;;2.83;;
10005;SDS011;5042;42.626;23.382;2023-05-21T14:05:35;4.75;;;2.88;;
10005;SDS011;5042;42.626;23.382;2023-05-21T14:08:02;7.35;;;3.15;;
10005;SDS011;5042;42.626;23.382;2023-05-21T14:10:29;4.22;;;2.65;;
10005;SDS011;5042;42.626;23.382;2023-05-21T14:12:56;4.05;;;2.80;;
10005;SDS011;5042;42.626;23.382;2023-05-21T14:15:22;4.05;;;2.95;;
10005;SDS011;5042;42.626;23.382;2023-05-21T14:17:49;3.47;;;2.55;;
10005;SDS011;5042;42.626;23.382;2023-05-21T14:20:17;2.85;;;2.58;;
10005;SDS011;5042;42.626;23.382;2023-05-21T14:22:45;4.65;;;2.83;;
10005;SDS011;5042;42.626;23.382;2023-05-21T14:25:12;4.50;;;2.90;;
10005;SDS011;5042;42.626;23.382;2023-05-21T14:27:39;2.85;;;2.55;;
10005;SDS011;5042;42.626;23.382;2023-05-21T14:30:06;4.13;;;3.17;;
10005;SDS011;5042;42.626;23.382;2023-05-21T14:32:33;3.53;;;2.70;;
10005;SDS011;5042;42.626;23.382;2023-05-21T14:35:00;5.88;;;3.20;;
10005;SDS011;5042;42.626;23.382;2023-05-21T14:37:27;3.55;;;2.80;;
10005;SDS011;5042;42.626;23.382;2023-05-21T14:39:56;6.63;;;3.47;;
10005;SDS011;5042;42.626;23.382;2023-05-21T14:42:22;4.40;;;2.60;;
10005;SDS011;5042;42.626;23.382;2023-05-21T14:44:49;2.70;;;2.47;;
10005;SDS011;5042;42.626;23.382;2023-05-21T14:47:16;8.18;;;3.38;;
10005;SDS011;5042;42.626;23.382;2023-05-21T14:49:43;4.80;;;3.08;;
10005;SDS011;5042;42.626;23.382;2023-05-21T14:55:26;5.57;;;3.15;;
10005;SDS011;5042;42.626;23.382;2023-05-21T14:57:56;5.95;;;2.65;;
10005;SDS011;5042;42.626;23.382;2023-05-21T15:00:44;3.72;;;2.70;;
10005;SDS011;5042;42.626;23.382;2023-05-21T15:03:20;3.03;;;2.60;;
10005;SDS011;5042;42.626;23.382;2023-05-21T15:06:01;4.68;;;2.92;;